createdAt,value
2019-04-14T00:04:16.154Z,6.40
2019-04-14T00:10:18.746Z,6.20
2019-04-14T00:16:22.758Z,6.20
2019-04-14T00:22:28.067Z,6.20
2019-04-14T00:28:29.781Z,6.20
2019-04-14T00:34:35.200Z,6.10
2019-04-14T00:40:43.272Z,6.00
2019-04-14T00:46:58.266Z,6.00
2019-04-14T00:53:01.207Z,5.90
2019-04-14T00:59:04.934Z,5.80
2019-04-14T01:05:08.812Z,5.80
2019-04-14T01:11:11.732Z,5.90
2019-04-14T01:17:14.064Z,5.80
2019-04-14T01:23:17.171Z,5.80
2019-04-14T01:29:23.456Z,5.90
2019-04-14T01:35:27.003Z,5.80
2019-04-14T01:41:30.300Z,5.80
2019-04-14T01:47:33.424Z,5.80
2019-04-14T01:53:37.942Z,5.80
2019-04-14T01:59:41.261Z,5.70
2019-04-14T02:05:45.221Z,5.70
2019-04-14T02:11:48.912Z,5.70
2019-04-14T02:17:52.375Z,5.70
2019-04-14T02:23:56.040Z,5.90
2019-04-14T02:30:03.579Z,5.90
2019-04-14T02:36:32.214Z,6.00
2019-04-14T02:48:44.834Z,5.90
2019-04-14T02:54:53.639Z,5.90
2019-04-14T03:00:47.968Z,5.90
2019-04-14T03:06:55.038Z,5.90
2019-04-14T03:12:59.056Z,5.80
2019-04-14T03:19:11.790Z,5.70
2019-04-14T03:25:17.455Z,5.80
2019-04-14T03:32:07.451Z,5.90
2019-04-14T03:37:44.638Z,5.90
2019-04-14T03:49:44.627Z,6.00
2019-04-14T03:56:21.660Z,6.00
2019-04-14T04:02:24.744Z,6.00
2019-04-14T04:08:27.569Z,6.10
2019-04-14T04:14:31.320Z,6.00
2019-04-14T04:20:52.417Z,6.00
2019-04-14T04:27:00.319Z,6.10
2019-04-14T04:33:04.722Z,6.10
2019-04-14T04:39:12.859Z,6.10
2019-04-14T04:45:15.285Z,6.10
2019-04-14T04:51:18.187Z,6.10
2019-04-14T04:57:22.094Z,6.20
2019-04-14T05:03:25.864Z,6.30
2019-04-14T05:09:36.398Z,6.50
2019-04-14T05:15:42.469Z,6.70
2019-04-14T05:21:49.502Z,6.90
2019-04-14T05:27:53.708Z,7.20
2019-04-14T05:33:57.683Z,7.10
2019-04-14T05:40:02.198Z,7.10
2019-04-14T05:46:05.593Z,7.00
2019-04-14T05:52:11.958Z,7.30
2019-04-14T05:58:17.107Z,8.00
2019-04-14T06:04:20.010Z,8.90
2019-04-14T06:10:22.290Z,10.50
2019-04-14T06:16:25.822Z,11.90
2019-04-14T06:22:28.131Z,12.10
2019-04-14T06:28:30.412Z,11.50
2019-04-14T06:34:40.844Z,10.90
2019-04-14T06:40:45.017Z,10.20
2019-04-14T06:46:48.685Z,9.90
2019-04-14T06:52:51.086Z,10.80
2019-04-14T06:58:53.499Z,12.00
2019-04-14T07:04:56.348Z,12.00
2019-04-14T07:10:59.168Z,11.60
2019-04-14T07:17:08.049Z,11.10
2019-04-14T07:23:11.480Z,10.40
2019-04-14T07:29:14.848Z,10.40
2019-04-14T07:35:24.819Z,9.90
2019-04-14T07:41:55.872Z,9.80
2019-04-14T07:48:02.648Z,9.40
2019-04-14T07:54:08.756Z,8.90
2019-04-14T08:00:19.627Z,8.90
2019-04-14T08:06:32.755Z,8.70
2019-04-14T08:12:40.005Z,8.80
2019-04-14T08:18:52.943Z,9.00
2019-04-14T08:24:55.411Z,9.00
2019-04-14T08:31:01.960Z,8.90
2019-04-14T08:37:10.185Z,9.20
2019-04-14T08:43:21.189Z,9.20
2019-04-14T08:49:38.253Z,9.30
2019-04-14T08:55:50.662Z,9.50
2019-04-14T09:02:07.342Z,9.10
2019-04-14T09:08:12.482Z,9.50
2019-04-14T09:14:14.916Z,10.10
2019-04-14T09:20:17.317Z,10.40
2019-04-14T09:26:19.761Z,10.60
2019-04-14T09:32:22.985Z,10.00
2019-04-14T09:38:27.414Z,11.10
2019-04-14T09:44:29.632Z,11.40
2019-04-14T09:50:32.864Z,11.60
2019-04-14T09:56:35.167Z,11.80
2019-04-14T10:02:37.720Z,12.30
2019-04-14T10:08:42.067Z,12.00
2019-04-14T10:14:48.725Z,11.30
2019-04-14T10:20:52.377Z,11.50
2019-04-14T10:26:56.458Z,11.70
2019-04-14T10:32:59.139Z,12.30
2019-04-14T10:39:06.449Z,12.70
2019-04-14T10:45:18.519Z,13.10
2019-04-14T10:51:29.848Z,12.10
2019-04-14T10:57:25.761Z,11.40
2019-04-14T11:03:29.977Z,11.50
2019-04-14T11:09:32.571Z,11.00
2019-04-14T11:15:37.295Z,10.60
2019-04-14T11:21:42.656Z,10.30
2019-04-14T11:27:45.352Z,10.50
2019-04-14T11:33:59.489Z,10.60
2019-04-14T11:40:06.687Z,10.60
2019-04-14T11:46:09.440Z,10.40
2019-04-14T11:52:11.759Z,10.30
2019-04-14T11:58:14.145Z,10.90
2019-04-14T12:04:20.975Z,10.70
2019-04-14T12:10:24.130Z,11.50
2019-04-14T12:16:26.360Z,11.80
2019-04-14T12:22:29.459Z,11.40
2019-04-14T12:28:38.371Z,11.50
2019-04-14T12:34:41.223Z,11.50
2019-04-14T12:40:45.678Z,11.60
2019-04-14T12:46:52.752Z,11.80
2019-04-14T12:52:56.495Z,11.90
2019-04-14T12:59:01.454Z,11.90
2019-04-14T13:05:05.027Z,12.10
2019-04-14T13:11:09.700Z,12.10
2019-04-14T13:23:42.674Z,11.10
2019-04-14T13:29:45.460Z,11.10
2019-04-14T13:35:47.749Z,11.20
2019-04-14T13:41:52.424Z,11.20
2019-04-14T13:47:55.590Z,11.40
2019-04-14T13:53:59.844Z,11.50
2019-04-14T14:00:02.268Z,11.30
2019-04-14T14:06:06.789Z,11.30
2019-04-14T14:12:28.306Z,11.20
2019-04-14T14:18:51.162Z,11.30
2019-04-14T14:25:01.571Z,11.50
2019-04-14T14:31:04.517Z,10.90
2019-04-14T14:37:07.664Z,10.80
2019-04-14T14:43:14.762Z,10.70
2019-04-14T14:49:22.191Z,10.60
2019-04-14T14:55:28.274Z,10.60
2019-04-14T15:01:33.211Z,10.50
2019-04-14T15:07:37.112Z,10.50
2019-04-14T15:13:41.168Z,10.40
2019-04-14T15:19:43.629Z,10.30
2019-04-14T15:26:05.586Z,10.00
2019-04-14T15:32:07.888Z,9.80
2019-04-14T15:38:19.302Z,9.80
2019-04-14T15:44:24.904Z,9.70
2019-04-14T15:50:31.555Z,9.60
2019-04-14T15:56:41.753Z,9.40
2019-04-14T16:02:56.308Z,9.00
2019-04-14T16:09:01.437Z,9.00
2019-04-14T16:15:14.908Z,9.10
2019-04-14T16:21:22.568Z,8.90
2019-04-14T16:27:28.995Z,8.90
2019-04-14T16:33:46.657Z,8.90
2019-04-14T16:39:49.602Z,8.90
2019-04-14T16:45:58.434Z,8.80
2019-04-14T16:52:09.927Z,8.90
2019-04-14T16:58:18.546Z,8.70
2019-04-14T17:04:22.446Z,8.60
2019-04-14T17:10:27.136Z,8.50
2019-04-14T17:16:32.038Z,8.40
2019-04-14T17:22:43.369Z,8.40
2019-04-14T17:29:04.471Z,8.30
2019-04-14T17:35:25.917Z,8.30
2019-04-14T17:41:33.155Z,8.20
2019-04-14T17:47:42.111Z,8.20
2019-04-14T17:53:50.176Z,8.30
2019-04-14T18:00:02.098Z,8.30
2019-04-14T18:06:09.119Z,8.10
2019-04-14T18:12:23.245Z,8.10
2019-04-14T18:18:28.034Z,8.20
2019-04-14T18:24:42.061Z,8.10
2019-04-14T18:30:41.713Z,8.10
2019-04-14T18:37:06.406Z,8.10
2019-04-14T18:43:13.984Z,8.10
2019-04-14T18:49:26.491Z,8.10
2019-04-14T18:55:36.648Z,8.00
2019-04-14T19:02:02.346Z,8.00
2019-04-14T19:08:06.998Z,8.00
2019-04-14T19:14:14.421Z,8.00
2019-04-14T19:20:20.047Z,8.00
2019-04-14T19:26:26.930Z,7.90
2019-04-14T19:32:31.104Z,7.90
2019-04-14T19:38:34.332Z,8.00
2019-04-14T19:44:53.005Z,8.00
2019-04-14T19:51:02.155Z,8.10
2019-04-14T19:57:04.545Z,8.10
2019-04-14T20:03:07.387Z,8.10
2019-04-14T20:09:10.062Z,8.10
2019-04-14T20:15:15.943Z,8.00
2019-04-14T20:21:36.118Z,8.10
2019-04-14T20:27:41.276Z,8.10
2019-04-14T20:33:54.041Z,8.00
2019-04-14T20:39:57.082Z,8.00
2019-04-14T20:46:05.653Z,8.10
2019-04-14T20:52:12.983Z,8.10
2019-04-14T20:58:17.557Z,8.10
2019-04-14T21:04:28.389Z,8.10
2019-04-14T21:10:51.466Z,8.10
2019-04-14T21:16:55.781Z,8.00
2019-04-14T21:23:06.166Z,8.00
2019-04-14T21:29:10.970Z,8.00
2019-04-14T21:35:15.213Z,8.00
2019-04-14T21:41:19.905Z,8.00
2019-04-14T21:47:23.166Z,8.10
2019-04-14T21:53:27.775Z,8.20
2019-04-14T21:59:49.281Z,8.30
2019-04-14T22:06:10.402Z,8.30
2019-04-14T22:12:13.424Z,8.30
2019-04-14T22:18:17.035Z,8.30
2019-04-14T22:24:19.552Z,8.30
2019-04-14T22:30:26.570Z,8.30
2019-04-14T22:36:31.828Z,8.20
2019-04-14T22:42:34.470Z,8.20
2019-04-14T22:48:39.368Z,8.30
2019-04-14T22:54:42.034Z,8.20
2019-04-14T23:00:53.899Z,8.20
2019-04-14T23:07:10.450Z,8.20
2019-04-14T23:13:17.697Z,8.20
2019-04-14T23:19:24.971Z,8.20
2019-04-14T23:25:30.006Z,8.30
2019-04-14T23:31:34.311Z,8.40
2019-04-14T23:37:46.894Z,8.40
2019-04-14T23:43:50.892Z,8.50
2019-04-14T23:49:53.405Z,8.40
2019-04-14T23:55:56.396Z,8.40
